Date,TemperatureHighF,TemperatureAvgF,TemperatureLowF,DewpointHighF,DewpointAvgF,DewpointLowF,HumidityHigh,HumidityAvg,HumidityLow,PressureMaxIn,PressureMinIn,WindSpeedMaxMPH,WindSpeedAvgMPH,GustSpeedMaxMPH,PrecipitationSumIn
2013-9-1,76.7,68.9,64.1,72.0,66.2,62.0,94,91,83,29.81,29.73,2,0,10,0.15
2013-9-2,79.7,71.3,65.6,70.0,66.9,64.0,94,86,71,29.78,29.70,3,0,6,0.00
2013-9-3,77.1,67.7,59.1,66.0,61.4,54.0,93,81,55,29.91,29.69,3,0,7,0.00
2013-9-4,74.5,62.9,54.6,62.0,56.0,53.0,93,79,56,30.04,29.91,3,0,5,0.00
2013-9-5,76.6,64.8,57.8,62.0,55.6,49.0,84,73,50,30.08,29.98,5,1,9,0.00
2013-9-6,69.4,58.1,49.6,56.0,51.0,46.0,89,78,54,30.18,30.08,3,0,4,0.00
2013-9-7,74.5,63.0,55.0,60.0,54.7,50.0,88,75,50,30.11,29.91,5,1,8,0.00
2013-9-8,79.1,68.4,61.9,68.0,60.8,52.0,89,77,65,29.97,29.85,2,0,5,0.00
2013-9-9,74.6,65.6,57.5,66.0,60.9,55.0,92,85,73,30.10,29.97,4,1,8,0.00
2013-9-10,82.3,71.9,64.7,73.0,67.1,62.0,93,85,69,30.16,30.06,7,2,10,0.00
2013-9-11,81.2,73.6,68.8,73.0,69.5,66.0,92,87,72,30.11,29.96,4,0,9,0.01
2013-9-12,80.8,70.0,64.7,72.0,65.6,60.0,93,86,71,29.95,29.71,3,1,9,0.63
2013-9-13,67.0,60.2,50.5,60.0,53.9,46.0,94,81,57,29.88,29.67,5,1,10,0.04
2013-9-14,60.8,50.0,42.3,48.0,44.0,40.0,93,81,58,30.14,29.88,4,1,5,0.00
2013-9-15,67.7,57.0,48.0,58.0,50.9,44.0,88,80,65,30.21,30.06,5,1,10,0.00
2013-9-16,60.1,56.3,51.8,56.0,54.0,50.0,94,92,83,30.20,30.03,2,0,4,0.01
2013-9-17,60.4,51.7,42.9,53.0,47.4,41.0,95,86,73,30.36,30.20,4,0,5,0.00
2013-9-18,64.1,52.5,43.9,54.0,46.7,40.0,90,81,65,30.29,30.15,3,0,5,0.00
2013-9-19,68.1,58.8,52.1,61.0,55.1,50.0,92,88,75,30.16,30.04,2,0,5,0.00
2013-9-20,71.5,63.0,58.1,64.0,59.8,56.0,94,89,76,30.05,29.89,5,1,6,0.00
2013-9-21,63.7,60.7,55.4,61.0,58.9,54.0,95,93,91,29.89,29.62,6,1,14,0.67
2013-9-22,62.1,54.4,46.5,55.0,51.1,44.0,95,89,71,29.92,29.70,4,0,5,0.01
2013-9-23,60.0,49.2,44.3,49.0,44.7,43.0,94,85,65,30.07,29.91,3,0,6,0.00
2013-9-24,67.9,54.5,44.7,55.0,48.9,43.0,92,82,57,30.08,29.93,3,0,6,0.00
2013-9-25,66.6,57.5,51.7,57.0,51.2,40.0,91,80,63,29.95,29.84,2,0,6,0.00
2013-9-26,68.9,57.7,51.7,55.0,49.2,44.0,86,74,58,30.03,29.88,2,0,4,0.00
2013-9-27,64.7,56.3,51.8,55.0,51.3,47.0,93,83,66,30.18,30.03,2,0,4,0.00
2013-9-28,55.8,52.7,49.4,52.0,50.0,46.0,94,90,83,30.25,30.17,1,0,3,0.00
2013-9-29,64.8,54.4,48.5,53.0,48.5,45.0,90,81,63,30.18,30.04,3,0,6,0.00
2013-9-30,70.9,58.6,51.6,56.0,51.0,46.0,85,77,56,30.05,29.95,3,0,4,0.00